Terminal Aerodrome Forecast
Issued by NWS

Home | Current Version | Previous Version | Text Only | Print | Product List | Glossary On
Versions: 1 2 3 4 5 6 7 8 9 10 11 12 13 14 15 16 17 18 19 20 21
000
FTUS44 KLIX 282320
TAFMCB
TAF
KMCB 282320Z 2900/2924 13007KT P6SM FEW035
     FM291000 00000KT 3SM BR SCT003
     FM291500 34003KT P6SM BKN100=

USA.gov is the U.S. government's official web portal to all federal, state and local government web resources and services.